Time;durP1;ratioP1;P1;durP2;ratioP2;P2;SDS_P1;SDS_P2;PMS_P1;PMS_P2;Temp;Humidity;BMP_temperature;BMP_pressure;BME280_temperature;BME280_humidity;BME280_pressure;Samples;Min_cycle;Max_cycle;Signal;HPM_P1;HPM_P2
2021/08/20 00:01:36;;;;;;;5.40;2.95;;;16.60;95.60;;;;;;5059747;28;20066;-68
2021/08/20 00:04:03;;;;;;;5.63;2.92;;;16.50;95.60;;;;;;5057948;28;20021;-68
2021/08/20 00:06:29;;;;;;;4.72;2.95;;;16.50;95.70;;;;;;5052755;28;20563;-68
2021/08/20 00:08:55;;;;;;;5.50;2.83;;;16.50;95.70;;;;;;5057111;28;20061;-68
2021/08/20 00:11:21;;;;;;;5.97;3.03;;;16.50;95.70;;;;;;5057702;28;20064;-68
2021/08/20 00:13:46;;;;;;;6.35;2.95;;;16.50;95.70;;;;;;5039903;28;20032;-68
2021/08/20 00:16:12;;;;;;;5.85;2.95;;;16.50;95.80;;;;;;5060096;28;20028;-68
2021/08/20 00:18:38;;;;;;;4.53;2.95;;;16.50;95.70;;;;;;5058754;28;20025;-68
2021/08/20 00:21:03;;;;;;;7.32;3.45;;;16.50;95.70;;;;;;5059341;28;20036;-68
2021/08/20 00:23:29;;;;;;;7.32;3.85;;;16.50;95.70;;;;;;5041245;28;20040;-68
2021/08/20 00:25:55;;;;;;;6.13;3.33;;;16.50;95.70;;;;;;5059324;28;20116;-68
2021/08/20 00:28:20;;;;;;;6.20;3.33;;;16.50;95.70;;;;;;5057500;28;20033;-68
2021/08/20 00:30:47;;;;;;;6.47;3.03;;;16.50;95.80;;;;;;5038879;28;20055;-68
2021/08/20 00:33:13;;;;;;;7.28;3.40;;;16.40;95.80;;;;;;5041530;28;20608;-68
2021/08/20 00:35:39;;;;;;;7.43;3.45;;;16.40;95.80;;;;;;5055996;28;20662;-68
2021/08/20 00:38:05;;;;;;;6.32;4.20;;;16.40;95.80;;;;;;5055848;28;20028;-68
2021/08/20 00:40:32;;;;;;;8.02;3.55;;;16.40;95.80;;;;;;5058398;28;20792;-68
2021/08/20 00:42:58;;;;;;;7.65;4.22;;;16.40;95.90;;;;;;5056430;28;20048;-68
2021/08/20 00:45:23;;;;;;;7.97;3.97;;;16.40;95.90;;;;;;5058703;28;20171;-68
2021/08/20 00:47:50;;;;;;;9.50;3.72;;;16.30;95.80;;;;;;5040501;28;20033;-68
2021/08/20 00:50:16;;;;;;;8.50;3.80;;;16.30;95.80;;;;;;5058734;28;20063;-68
2021/08/20 00:52:42;;;;;;;8.48;4.38;;;16.20;95.80;;;;;;5039461;28;20474;-68
2021/08/20 00:55:10;;;;;;;7.47;3.65;;;16.20;95.90;;;;;;5055618;28;20752;-68
2021/08/20 00:57:36;;;;;;;7.13;3.47;;;16.20;96.00;;;;;;5056299;28;20021;-68
2021/08/20 01:00:02;;;;;;;7.20;3.45;;;16.20;96.00;;;;;;5038238;28;20518;-68
2021/08/20 01:02:28;;;;;;;9.68;4.25;;;16.10;95.90;;;;;;5058291;28;21558;-68
2021/08/20 01:04:54;;;;;;;6.57;3.45;;;16.20;96.00;;;;;;5039342;28;20041;-68
2021/08/20 01:07:19;;;;;;;6.60;3.80;;;16.10;96.00;;;;;;5054187;28;20040;-68
2021/08/20 01:09:48;;;;;;;7.70;3.80;;;16.10;96.00;;;;;;5055581;28;20067;-68
2021/08/20 01:12:14;;;;;;;6.82;3.40;;;16.10;96.00;;;;;;5037330;28;20021;-69
2021/08/20 01:14:39;;;;;;;6.03;3.65;;;16.10;96.10;;;;;;5039476;28;20036;-68
2021/08/20 01:17:07;;;;;;;9.27;4.10;;;16.10;96.00;;;;;;5037281;28;20032;-68
2021/08/20 01:19:34;;;;;;;6.95;3.35;;;16.10;96.00;;;;;;5056873;28;20031;-68
2021/08/20 01:22:01;;;;;;;5.20;3.30;;;16.00;96.20;;;;;;5056263;28;20450;-68
2021/08/20 01:24:28;;;;;;;8.43;4.20;;;16.00;96.30;;;;;;5037172;28;20063;-68
2021/08/20 01:26:55;;;;;;;9.32;4.10;;;16.00;96.30;;;;;;5054996;28;20488;-68
2021/08/20 01:29:21;;;;;;;6.80;3.88;;;16.00;96.30;;;;;;5037578;28;20071;-68
2021/08/20 01:31:49;;;;;;;7.20;3.85;;;15.90;96.30;;;;;;5056475;28;20033;-68
2021/08/20 01:34:15;;;;;;;7.28;4.38;;;16.00;96.40;;;;;;5041541;28;20112;-68
2021/08/20 01:36:40;;;;;;;6.10;3.72;;;16.00;96.40;;;;;;5053820;28;20104;-68
2021/08/20 01:39:07;;;;;;;8.05;4.13;;;16.00;96.40;;;;;;5038947;28;20043;-68
2021/08/20 01:41:34;;;;;;;6.32;3.55;;;16.00;96.40;;;;;;5055064;28;20071;-68
2021/08/20 01:44:00;;;;;;;10.13;4.35;;;16.00;96.30;;;;;;5093152;22;20037;-65
2021/08/20 01:46:28;;;;;;;7.75;4.10;;;16.10;96.30;;;;;;5077754;28;20038;-64
2021/08/20 01:48:55;;;;;;;6.43;3.33;;;16.10;96.30;;;;;;5077879;28;20031;-63
2021/08/20 01:51:22;;;;;;;8.18;4.03;;;16.10;96.30;;;;;;5075061;28;20040;-63
2021/08/20 01:53:49;;;;;;;7.85;4.20;;;16.00;96.30;;;;;;5076595;28;20502;-64
2021/08/20 01:56:20;;;;;;;7.72;4.05;;;16.10;96.30;;;;;;5073137;28;20032;-63
2021/08/20 01:58:47;;;;;;;8.50;4.00;;;16.10;96.30;;;;;;5075969;28;20024;-65
2021/08/20 02:01:13;;;;;;;8.23;3.92;;;16.10;96.50;;;;;;5056444;28;20043;-63
2021/08/20 02:03:39;;;;;;;7.25;4.43;;;16.10;96.40;;;;;;5075783;28;20028;-63
2021/08/20 02:06:05;;;;;;;10.48;4.60;;;16.10;96.50;;;;;;5076838;28;20028;-65
2021/08/20 02:08:31;;;;;;;8.50;4.68;;;16.10;96.60;;;;;;5074697;28;20443;-63
2021/08/20 02:10:57;;;;;;;7.20;3.92;;;16.10;96.60;;;;;;5076551;28;20028;-64
2021/08/20 02:13:23;;;;;;;8.27;4.90;;;16.00;96.60;;;;;;5077302;28;20028;-65
2021/08/20 02:15:49;;;;;;;6.93;4.07;;;16.10;96.60;;;;;;5075321;28;20032;-66
2021/08/20 02:18:16;;;;;;;11.07;4.40;;;16.10;96.70;;;;;;5073516;28;20052;-64
2021/08/20 02:20:42;;;;;;;9.27;4.60;;;16.00;96.80;;;;;;5074183;28;20056;-63
2021/08/20 02:23:09;;;;;;;7.95;4.50;;;16.00;97.00;;;;;;5076151;28;20562;-64
2021/08/20 02:25:35;;;;;;;9.48;4.63;;;16.00;97.20;;;;;;5076257;28;20040;-66
2021/08/20 02:28:01;;;;;;;9.32;4.35;;;16.00;97.40;;;;;;5058190;28;20036;-65
2021/08/20 02:30:26;;;;;;;9.38;4.72;;;16.00;97.40;;;;;;5057294;28;20077;-64
2021/08/20 02:32:52;;;;;;;8.02;4.22;;;16.00;97.40;;;;;;5076885;28;20028;-65
2021/08/20 02:35:18;;;;;;;10.38;4.47;;;16.00;97.40;;;;;;5075608;28;20634;-63
2021/08/20 02:37:44;;;;;;;12.85;5.72;;;16.00;97.50;;;;;;5058187;28;20032;-65
2021/08/20 02:40:10;;;;;;;9.02;4.63;;;16.00;97.60;;;;;;5074403;28;20039;-65
2021/08/20 02:42:36;;;;;;;8.52;4.93;;;16.00;97.90;;;;;;5077773;28;20154;-65
2021/08/20 02:45:02;;;;;;;9.15;5.32;;;15.90;97.90;;;;;;5057670;28;20111;-67
2021/08/20 02:47:27;;;;;;;9.07;5.35;;;15.90;98.20;;;;;;5077871;28;20165;-68
2021/08/20 02:49:53;;;;;;;9.95;5.13;;;15.80;98.30;;;;;;5058538;28;20028;-65
2021/08/20 02:52:19;;;;;;;10.15;5.20;;;15.80;98.30;;;;;;5072176;28;20033;-63
2021/08/20 02:54:44;;;;;;;10.52;5.60;;;15.80;98.40;;;;;;5056026;28;20029;-63
2021/08/20 02:57:10;;;;;;;9.68;5.35;;;15.80;98.50;;;;;;5075852;28;20404;-65
2021/08/20 02:59:36;;;;;;;9.50;5.32;;;15.80;98.50;;;;;;5075097;28;20040;-66
2021/08/20 03:02:02;;;;;;;9.88;5.25;;;15.80;98.50;;;;;;5075454;28;20062;-67
2021/08/20 03:04:28;;;;;;;11.30;5.70;;;15.80;98.50;;;;;;5076527;28;20479;-64
2021/08/20 03:06:54;;;;;;;9.35;5.30;;;15.80;98.50;;;;;;5075646;28;20396;-67
2021/08/20 03:09:20;;;;;;;9.70;5.60;;;15.80;98.50;;;;;;5072236;28;20070;-64
2021/08/20 03:11:47;;;;;;;10.55;5.50;;;15.80;98.50;;;;;;5073738;28;20056;-63
2021/08/20 03:14:12;;;;;;;10.80;5.50;;;15.80;98.50;;;;;;5073378;28;20477;-65
2021/08/20 03:16:38;;;;;;;10.60;5.63;;;15.80;98.50;;;;;;5056969;28;20098;-64
2021/08/20 03:19:04;;;;;;;10.73;5.40;;;15.80;98.60;;;;;;5073896;28;20650;-63
2021/08/20 03:21:30;;;;;;;8.73;5.07;;;15.80;98.50;;;;;;5076503;28;20089;-64
2021/08/20 03:23:56;;;;;;;9.45;5.20;;;15.80;98.60;;;;;;5078834;28;20032;-64
2021/08/20 03:26:22;;;;;;;8.57;4.88;;;15.80;98.60;;;;;;5077023;28;20043;-64
2021/08/20 03:28:49;;;;;;;12.00;6.28;;;15.80;98.60;;;;;;5075348;28;20035;-65
2021/08/20 03:31:15;;;;;;;10.80;5.90;;;15.80;98.60;;;;;;5080643;28;20066;-66
2021/08/20 03:33:41;;;;;;;10.10;5.10;;;15.80;98.70;;;;;;5061228;28;20568;-64
2021/08/20 03:36:07;;;;;;;11.43;5.32;;;15.80;98.70;;;;;;5062533;28;20020;-65
2021/08/20 03:38:32;;;;;;;8.00;4.95;;;15.80;98.70;;;;;;5058403;28;20032;-64
2021/08/20 03:40:58;;;;;;;10.80;6.32;;;15.70;98.80;;;;;;5077828;28;20025;-64
2021/08/20 03:43:24;;;;;;;11.30;5.90;;;15.70;98.90;;;;;;5060402;28;20111;-65
2021/08/20 03:45:49;;;;;;;13.25;5.93;;;15.80;98.90;;;;;;5079999;28;20039;-64
2021/08/20 03:48:15;;;;;;;9.40;6.20;;;15.70;99.00;;;;;;5073481;28;20032;-65
2021/08/20 03:50:41;;;;;;;11.70;6.55;;;15.70;98.90;;;;;;5078336;28;20025;-65
2021/08/20 03:53:06;;;;;;;8.73;5.68;;;15.70;99.00;;;;;;5079883;28;20116;-64
2021/08/20 03:55:32;;;;;;;12.88;6.20;;;15.70;99.10;;;;;;5075292;28;20033;-68
2021/08/20 03:57:58;;;;;;;10.95;6.28;;;15.70;99.10;;;;;;5058661;28;20021;-65
2021/08/20 04:00:24;;;;;;;9.40;5.63;;;15.70;99.10;;;;;;5075565;28;20028;-64
2021/08/20 04:02:49;;;;;;;10.45;5.00;;;15.60;99.30;;;;;;5072409;28;20029;-63
2021/08/20 04:05:15;;;;;;;10.57;5.72;;;15.50;99.50;;;;;;5072242;28;20036;-65
2021/08/20 04:07:41;;;;;;;9.65;5.10;;;15.50;99.50;;;;;;5075961;28;20035;-65
2021/08/20 04:10:07;;;;;;;10.77;5.72;;;15.50;99.50;;;;;;5070236;28;20040;-65
2021/08/20 04:12:33;;;;;;;14.40;6.47;;;15.50;99.60;;;;;;5077066;28;20050;-65
2021/08/20 04:14:58;;;;;;;10.18;5.32;;;15.50;99.60;;;;;;5074092;28;20097;-64
2021/08/20 04:17:24;;;;;;;12.80;6.07;;;15.50;99.60;;;;;;5075205;28;20027;-64
2021/08/20 04:19:50;;;;;;;10.55;5.40;;;15.40;99.80;;;;;;5074223;28;20623;-64
2021/08/20 04:22:15;;;;;;;10.30;5.10;;;15.40;99.90;;;;;;5076207;28;20028;-65
2021/08/20 04:24:42;;;;;;;10.40;5.38;;;15.30;99.90;;;;;;5053121;28;20043;-64
2021/08/20 04:27:09;;;;;;;9.07;4.82;;;15.30;99.80;;;;;;5071320;28;20024;-65
2021/08/20 04:29:35;;;;;;;8.52;4.50;;;15.30;99.90;;;;;;5072288;28;20041;-65
2021/08/20 04:32:02;;;;;;;9.35;4.53;;;15.30;99.90;;;;;;5073055;28;20044;-66
2021/08/20 04:34:28;;;;;;;8.60;4.53;;;15.30;99.80;;;;;;5056361;28;20032;-65
2021/08/20 04:36:54;;;;;;;7.05;3.92;;;15.40;99.70;;;;;;5069594;28;20024;-65
2021/08/20 04:39:19;;;;;;;9.98;4.80;;;15.40;99.70;;;;;;5069051;28;20048;-65
2021/08/20 04:41:45;;;;;;;11.60;5.40;;;15.40;99.70;;;;;;5068359;28;20024;-68
2021/08/20 04:44:11;;;;;;;9.10;5.00;;;15.40;99.70;;;;;;5069915;28;20405;-65
2021/08/20 04:46:39;;;;;;;8.43;4.85;;;15.40;99.60;;;;;;5071176;28;20027;-65
2021/08/20 04:49:08;;;;;;;7.13;4.18;;;15.40;99.60;;;;;;5073607;28;20117;-65
2021/08/20 04:51:34;;;;;;;7.55;5.03;;;15.40;99.60;;;;;;5069799;28;20097;-65
2021/08/20 04:54:00;;;;;;;7.53;4.57;;;15.40;99.50;;;;;;5069409;28;20036;-65
2021/08/20 04:56:26;;;;;;;8.23;4.30;;;15.40;99.80;;;;;;5071579;28;20467;-66
2021/08/20 04:58:53;;;;;;;7.72;4.55;;;15.40;99.50;;;;;;5070702;28;20831;-68
2021/08/20 05:01:18;;;;;;;7.90;4.47;;;15.50;99.60;;;;;;5063438;28;20040;-66
2021/08/20 05:03:45;;;;;;;7.65;4.18;;;15.50;99.50;;;;;;5073346;28;20036;-66
2021/08/20 05:06:12;;;;;;;5.38;3.75;;;15.50;99.40;;;;;;5059083;28;20028;-66
2021/08/20 05:08:38;;;;;;;7.10;4.10;;;15.50;99.50;;;;;;5074940;28;20028;-66
2021/08/20 05:11:05;;;;;;;7.45;4.80;;;15.50;99.50;;;;;;5070925;28;20032;-69
2021/08/20 05:13:31;;;;;;;7.15;4.88;;;15.40;99.70;;;;;;5075464;28;20116;-65
2021/08/20 05:15:57;;;;;;;8.02;5.03;;;15.40;99.80;;;;;;5077417;28;20024;-64
2021/08/20 05:18:23;;;;;;;10.15;4.28;;;15.40;99.80;;;;;;5076395;28;20416;-66
2021/08/20 05:20:49;;;;;;;8.25;4.85;;;15.50;99.70;;;;;;5058579;28;20498;-66
2021/08/20 05:23:15;;;;;;;6.95;4.05;;;15.50;99.60;;;;;;5075240;28;20116;-66
2021/08/20 05:25:41;;;;;;;6.80;4.30;;;15.50;99.60;;;;;;5077698;28;20046;-63
2021/08/20 05:28:09;;;;;;;7.03;4.72;;;15.50;99.50;;;;;;5075046;28;20477;-64
2021/08/20 05:30:35;;;;;;;7.85;4.60;;;15.60;99.50;;;;;;5056039;28;20525;-66
2021/08/20 05:33:01;;;;;;;7.22;4.35;;;15.60;99.40;;;;;;5063550;28;20060;-64
2021/08/20 05:35:27;;;;;;;7.70;4.70;;;15.60;99.50;;;;;;5061973;28;20643;-64
2021/08/20 05:37:54;;;;;;;5.45;3.70;;;15.60;99.60;;;;;;5064490;28;20074;-65
2021/08/20 05:40:20;;;;;;;8.38;4.82;;;15.60;99.60;;;;;;5061505;28;20039;-68
2021/08/20 05:42:45;;;;;;;7.65;4.53;;;15.70;99.40;;;;;;5056323;28;20035;-65
2021/08/20 05:45:12;;;;;;;9.02;4.43;;;15.70;99.30;;;;;;5072917;28;20565;-64
2021/08/20 05:47:38;;;;;;;7.85;4.40;;;15.70;99.40;;;;;;5074454;28;20139;-63
2021/08/20 05:50:05;;;;;;;8.25;4.60;;;15.70;99.40;;;;;;5041062;28;20025;-63
2021/08/20 05:52:31;;;;;;;8.85;5.50;;;15.70;99.40;;;;;;5072354;28;20069;-64
2021/08/20 05:54:59;;;;;;;8.73;5.38;;;15.70;99.30;;;;;;5076658;28;20043;-65
2021/08/20 05:57:25;;;;;;;9.15;5.43;;;15.80;99.20;;;;;;5075910;28;20041;-63
2021/08/20 05:59:51;;;;;;;7.07;4.57;;;15.80;99.20;;;;;;5072482;28;20040;-64
2021/08/20 06:02:16;;;;;;;8.43;5.28;;;15.80;99.30;;;;;;5074112;28;20043;-64
2021/08/20 06:04:42;;;;;;;9.27;5.00;;;15.80;99.30;;;;;;5076065;28;20066;-64
2021/08/20 06:07:08;;;;;;;12.82;6.93;;;15.80;99.40;;;;;;5074407;28;20401;-65
2021/08/20 06:09:34;;;;;;;9.70;6.82;;;15.90;99.00;;;;;;5069492;28;20050;-65
2021/08/20 06:12:00;;;;;;;9.27;5.63;;;15.90;98.80;;;;;;5077278;28;20032;-66
2021/08/20 06:14:26;;;;;;;8.98;5.75;;;15.90;99.00;;;;;;5074058;28;20028;-65
2021/08/20 06:16:55;;;;;;;9.07;6.47;;;15.90;99.20;;;;;;5060206;28;20520;-65
2021/08/20 06:19:25;;;;;;;10.00;6.50;;;15.90;99.30;;;;;;5075775;28;20033;-65
2021/08/20 06:21:51;;;;;;;10.68;6.22;;;15.90;99.40;;;;;;5075662;28;20024;-65
2021/08/20 06:24:17;;;;;;;9.35;6.07;;;15.90;99.50;;;;;;5075187;28;20028;-64
2021/08/20 06:26:46;;;;;;;9.88;5.20;;;15.80;99.60;;;;;;5076939;28;20446;-63
2021/08/20 06:29:16;;;;;;;10.93;5.68;;;15.80;99.70;;;;;;5077032;28;20039;-63
2021/08/20 06:31:42;;;;;;;7.47;4.43;;;15.80;99.70;;;;;;5075301;28;20046;-63
2021/08/20 06:34:08;;;;;;;8.73;5.10;;;15.70;99.80;;;;;;5073770;28;20112;-67
2021/08/20 06:36:34;;;;;;;8.70;4.35;;;15.70;99.90;;;;;;5059747;28;20108;-67
2021/08/20 06:38:59;;;;;;;5.90;3.47;;;15.70;99.90;;;;;;5065688;28;20031;-64
2021/08/20 06:41:25;;;;;;;6.95;3.95;;;15.70;99.90;;;;;;5050652;28;20039;-65
2021/08/20 06:43:51;;;;;;;8.43;3.78;;;15.70;99.90;;;;;;5065202;28;20032;-64
2021/08/20 06:46:16;;;;;;;9.90;3.70;;;15.80;99.90;;;;;;5052074;28;20028;-64
2021/08/20 06:48:42;;;;;;;4.25;3.15;;;15.80;99.90;;;;;;5072283;28;20032;-64
2021/08/20 06:51:12;;;;;;;5.40;3.72;;;15.80;99.80;;;;;;5071379;28;20025;-63
2021/08/20 06:53:38;;;;;;;7.10;3.60;;;15.80;99.70;;;;;;5071664;28;20025;-66
2021/08/20 06:56:05;;;;;;;6.47;3.22;;;15.80;99.70;;;;;;5073368;28;20390;-63
2021/08/20 06:58:31;;;;;;;6.05;3.47;;;15.80;99.70;;;;;;5073714;28;20025;-67
2021/08/20 07:00:56;;;;;;;7.68;3.88;;;15.80;99.60;;;;;;5071124;28;20046;-64
2021/08/20 07:03:22;;;;;;;6.50;4.38;;;15.90;99.60;;;;;;5074459;28;20058;-64
2021/08/20 07:05:48;;;;;;;5.75;3.65;;;15.90;99.50;;;;;;5079391;28;20036;-64
2021/08/20 07:08:14;;;;;;;5.68;3.90;;;15.90;99.50;;;;;;5077234;28;20394;-64
2021/08/20 07:10:39;;;;;;;7.50;3.88;;;15.90;99.50;;;;;;5080472;28;20434;-66
2021/08/20 07:13:05;;;;;;;4.38;3.20;;;15.90;99.50;;;;;;5076186;28;20028;-67
2021/08/20 07:15:31;;;;;;;4.90;3.05;;;15.90;99.50;;;;;;5077712;28;20295;-65
2021/08/20 07:17:58;;;;;;;5.32;2.80;;;15.90;99.50;;;;;;5078736;28;20026;-64
2021/08/20 07:20:23;;;;;;;4.38;2.58;;;16.00;99.50;;;;;;5082023;28;20055;-64
2021/08/20 07:22:49;;;;;;;5.60;4.22;;;16.00;99.60;;;;;;5077444;28;20494;-65
2021/08/20 07:25:15;;;;;;;7.50;4.72;;;15.90;99.70;;;;;;5076801;28;20043;-64
2021/08/20 07:27:41;;;;;;;6.05;4.60;;;15.90;99.70;;;;;;5074841;28;20111;-64
2021/08/20 07:30:07;;;;;;;4.38;3.50;;;15.90;99.70;;;;;;5080104;28;20050;-66
2021/08/20 07:32:33;;;;;;;5.00;3.40;;;16.00;99.70;;;;;;5071693;28;20044;-66
2021/08/20 07:34:58;;;;;;;5.57;4.03;;;16.00;99.70;;;;;;5069121;28;20145;-65
2021/08/20 07:37:24;;;;;;;3.65;3.30;;;16.00;99.70;;;;;;5076520;28;21777;-64
2021/08/20 07:39:50;;;;;;;5.38;3.92;;;16.00;99.70;;;;;;5076700;28;20033;-64
2021/08/20 07:42:19;;;;;;;5.60;3.58;;;16.00;99.70;;;;;;5075469;28;20031;-66
2021/08/20 07:44:45;;;;;;;4.68;3.33;;;16.00;99.70;;;;;;5068963;28;20029;-64
2021/08/20 07:47:10;;;;;;;4.05;2.35;;;16.00;99.90;;;;;;5069407;28;20039;-67
2021/08/20 07:49:36;;;;;;;3.55;2.20;;;16.00;99.90;;;;;;5050320;28;20633;-66
2021/08/20 07:52:02;;;;;;;6.53;2.20;;;16.00;99.90;;;;;;5067167;28;20044;-65
2021/08/20 07:54:28;;;;;;;2.13;1.60;;;16.00;99.90;;;;;;5031334;28;20032;-67
2021/08/20 07:56:54;;;;;;;3.03;1.83;;;16.10;99.90;;;;;;5054264;28;20032;-66
2021/08/20 07:59:19;;;;;;;2.70;2.15;;;16.20;99.90;;;;;;5078547;28;20024;-66
2021/08/20 08:01:45;;;;;;;3.33;2.10;;;16.30;99.90;;;;;;5071857;28;20121;-66
2021/08/20 08:04:11;;;;;;;4.35;2.85;;;16.40;99.90;;;;;;5071595;28;20033;-66
2021/08/20 08:06:38;;;;;;;4.00;2.38;;;16.50;99.60;;;;;;5077891;28;20036;-66
2021/08/20 08:09:04;;;;;;;3.22;2.20;;;16.50;99.70;;;;;;5073651;28;20167;-66
2021/08/20 08:11:31;;;;;;;4.35;2.67;;;16.50;99.70;;;;;;5074268;28;20139;-66
2021/08/20 08:14:05;;;;;;;3.85;2.75;;;16.50;99.60;;;;;;5069594;28;20016;-66
2021/08/20 08:16:33;;;;;;;3.97;2.53;;;16.60;99.70;;;;;;5058175;28;20039;-66
2021/08/20 08:18:59;;;;;;;4.10;2.47;;;16.60;99.60;;;;;;5069471;28;20032;-67
2021/08/20 08:21:25;;;;;;;4.07;2.90;;;16.60;99.50;;;;;;5077767;28;20566;-66
2021/08/20 08:23:51;;;;;;;4.28;3.22;;;16.70;99.50;;;;;;5054032;28;20123;-66
2021/08/20 08:26:16;;;;;;;5.40;3.33;;;16.80;99.40;;;;;;5073500;28;20028;-66
2021/08/20 08:28:42;;;;;;;4.28;2.67;;;16.80;99.30;;;;;;5075494;28;20056;-66
2021/08/20 08:31:08;;;;;;;4.70;3.17;;;16.80;99.30;;;;;;5072962;28;20032;-67
2021/08/20 08:33:34;;;;;;;5.03;3.30;;;16.90;99.20;;;;;;5075564;28;20023;-66
2021/08/20 08:36:00;;;;;;;4.90;3.78;;;17.00;99.10;;;;;;5078025;28;20060;-66
2021/08/20 08:38:26;;;;;;;4.07;2.85;;;17.10;99.00;;;;;;5074305;28;20042;-66
2021/08/20 08:40:51;;;;;;;4.15;3.35;;;17.20;98.80;;;;;;5078377;28;20382;-66
2021/08/20 08:43:17;;;;;;;4.30;3.15;;;17.20;98.90;;;;;;5071003;28;20058;-66
2021/08/20 08:45:44;;;;;;;4.55;3.53;;;17.30;98.90;;;;;;5075263;28;20032;-67
2021/08/20 08:48:14;;;;;;;6.75;4.53;;;17.40;98.90;;;;;;5069977;28;20037;-66
2021/08/20 08:50:43;;;;;;;7.93;5.13;;;17.40;98.60;;;;;;5069975;28;20032;-66
2021/08/20 08:53:09;;;;;;;9.02;5.80;;;17.50;97.90;;;;;;5070983;28;20059;-65
2021/08/20 08:55:35;;;;;;;7.45;5.00;;;17.60;97.70;;;;;;5067208;28;20516;-66
2021/08/20 08:58:05;;;;;;;7.25;4.53;;;17.50;97.90;;;;;;5076730;28;20509;-67
2021/08/20 09:00:36;;;;;;;6.47;4.60;;;17.40;98.00;;;;;;5075332;28;20585;-66
2021/08/20 09:03:03;;;;;;;6.80;4.60;;;17.40;98.20;;;;;;5074817;28;20044;-66
2021/08/20 09:05:43;;;;;;;9.90;5.93;;;17.30;98.40;;;;;;5068677;28;20038;-65
2021/08/20 09:08:14;;;;;;;7.78;5.50;;;17.30;98.30;;;;;;5072029;28;20028;-64
2021/08/20 09:11:02;;;;;;;9.85;5.47;;;17.10;98.30;;;;;;5076342;28;20497;-67
2021/08/20 09:13:29;;;;;;;9.43;7.00;;;17.20;98.40;;;;;;5077141;28;20609;-67
2021/08/20 09:16:08;;;;;;;11.77;7.45;;;17.30;98.70;;;;;;5075249;28;20046;-67
2021/08/20 09:18:35;;;;;;;10.10;6.82;;;17.70;98.10;;;;;;5075450;28;20043;-66
2021/08/20 09:21:01;;;;;;;10.80;7.47;;;17.90;97.70;;;;;;5076270;28;20073;-66
2021/08/20 09:23:27;;;;;;;9.75;6.63;;;18.10;96.60;;;;;;5078142;28;20107;-66
2021/08/20 09:25:54;;;;;;;7.28;5.35;;;18.20;96.70;;;;;;5076756;28;20033;-66
2021/08/20 09:28:27;;;;;;;8.38;5.93;;;18.20;96.80;;;;;;5077605;28;20190;-66
2021/08/20 09:30:59;;;;;;;8.02;5.53;;;18.10;97.00;;;;;;5075783;28;20051;-65
2021/08/20 09:33:37;;;;;;;8.38;5.88;;;18.10;97.20;;;;;;5078748;28;20079;-65
2021/08/20 09:36:06;;;;;;;13.32;6.63;;;18.00;97.50;;;;;;5055770;28;20413;-65
2021/08/20 09:38:36;;;;;;;11.50;7.88;;;18.00;97.50;;;;;;5054573;28;20025;-65
2021/08/20 09:41:05;;;;;;;10.93;6.95;;;17.90;97.40;;;;;;5054453;28;20040;-66
2021/08/20 09:43:35;;;;;;;9.75;7.20;;;17.90;97.40;;;;;;5056549;28;20055;-65
2021/08/20 09:46:14;;;;;;;12.23;9.50;;;18.00;97.50;;;;;;5055579;28;20542;-66
2021/08/20 09:48:46;;;;;;;16.08;9.55;;;18.30;96.20;;;;;;5054733;28;20055;-67
2021/08/20 09:51:30;;;;;;;16.23;10.25;;;18.20;96.00;;;;;;5039751;28;20045;-66
2021/08/20 09:54:01;;;;;;;11.55;8.50;;;18.10;96.20;;;;;;5054165;28;20025;-66
2021/08/20 09:56:28;;;;;;;22.02;12.73;;;17.90;96.70;;;;;;5057904;28;20112;-66
2021/08/20 09:58:57;;;;;;;15.48;9.95;;;17.80;97.70;;;;;;5053928;28;20029;-66
2021/08/20 10:01:23;;;;;;;14.73;9.98;;;17.60;98.00;;;;;;5052300;28;20115;-66
2021/08/20 10:03:50;;;;;;;14.20;9.75;;;17.50;98.50;;;;;;5055484;28;20367;-66
2021/08/20 10:06:17;;;;;;;13.38;8.52;;;17.50;99.00;;;;;;5054973;28;20024;-66
2021/08/20 10:08:43;;;;;;;14.23;9.52;;;17.40;99.10;;;;;;5054539;28;20082;-67
2021/08/20 10:11:10;;;;;;;17.90;10.13;;;17.50;99.70;;;;;;5054391;28;20386;-67
2021/08/20 10:13:36;;;;;;;12.05;9.13;;;17.50;99.70;;;;;;5055960;28;20040;-66
2021/08/20 10:16:03;;;;;;;14.02;8.90;;;17.60;99.80;;;;;;5038723;28;20029;-65
2021/08/20 10:18:30;;;;;;;12.02;8.35;;;17.60;99.70;;;;;;5057020;28;20044;-65
2021/08/20 10:20:58;;;;;;;12.35;8.32;;;17.70;99.80;;;;;;5051619;28;20025;-64
2021/08/20 10:23:24;;;;;;;10.27;7.38;;;17.90;99.70;;;;;;5054610;28;20067;-64
2021/08/20 10:25:51;;;;;;;11.68;8.80;;;18.10;99.50;;;;;;5055802;28;20047;-65
2021/08/20 10:28:18;;;;;;;11.43;7.75;;;18.20;99.20;;;;;;5053435;28;20028;-65
2021/08/20 10:30:45;;;;;;;9.68;7.43;;;18.40;98.90;;;;;;5055875;28;20025;-64
2021/08/20 10:33:11;;;;;;;14.93;9.80;;;18.50;98.60;;;;;;5055552;28;20043;-65
2021/08/20 10:35:56;;;;;;;11.57;8.40;;;18.50;98.60;;;;;;5055437;28;20402;-64
2021/08/20 10:38:34;;;;;;;14.57;10.57;;;18.70;98.40;;;;;;5054323;28;20594;-65
2021/08/20 10:41:22;;;;;;;12.73;8.88;;;18.80;97.80;;;;;;5050581;28;20071;-64
2021/08/20 10:43:49;;;;;;;12.57;9.50;;;18.90;97.60;;;;;;5053912;28;20036;-65
2021/08/20 10:46:33;;;;;;;13.27;9.57;;;19.10;98.00;;;;;;5057114;28;20040;-65
2021/08/20 10:49:11;;;;;;;11.70;8.30;;;19.30;97.40;;;;;;5055012;28;20406;-64
2021/08/20 10:51:52;;;;;;;11.57;8.93;;;19.30;97.20;;;;;;5055414;28;20044;-65
2021/08/20 10:54:41;;;;;;;10.30;7.22;;;19.20;97.20;;;;;;5056168;28;20036;-66
2021/08/20 10:57:08;;;;;;;10.15;8.02;;;19.10;97.30;;;;;;5010532;28;20048;-66
2021/08/20 10:59:39;;;;;;;11.20;8.02;;;19.00;97.80;;;;;;5054011;28;20032;-66
2021/08/20 11:02:20;;;;;;;;;;;19.20;97.70;;;;;;5055343;28;20021;-66
2021/08/20 11:05:14;;;;;;;12.68;7.93;;;19.30;97.30;;;;;;5053308;28;19913;-65
2021/08/20 11:07:40;;;;;;;12.52;9.13;;;19.40;96.90;;;;;;5038440;28;20025;-65
2021/08/20 11:10:09;;;;;;;8.13;6.93;;;19.40;95.70;;;;;;5053184;28;20621;-65
2021/08/20 11:12:43;;;;;;;11.00;7.80;;;19.70;96.30;;;;;;5038764;28;20028;-66
2021/08/20 11:15:17;;;;;;;10.48;7.13;;;19.70;95.50;;;;;;5055888;28;20044;-66
2021/08/20 11:18:02;;;;;;;8.60;6.25;;;19.90;95.50;;;;;;5057149;28;20036;-65
2021/08/20 11:20:37;;;;;;;8.57;6.05;;;20.00;94.60;;;;;;5057518;28;20064;-66
2021/08/20 11:23:06;;;;;;;8.95;5.53;;;20.50;95.10;;;;;;5056260;28;20037;-66
2021/08/20 11:25:56;;;;;;;7.65;4.90;;;21.60;94.80;;;;;;5055591;28;20044;-67
2021/08/20 11:28:22;;;;;;;8.55;3.42;;;23.40;92.10;;;;;;5050951;28;20687;-67
2021/08/20 11:31:04;;;;;;;5.65;3.10;;;25.90;85.70;;;;;;5054785;28;20036;-66
2021/08/20 11:33:30;;;;;;;4.18;2.88;;;28.10;79.00;;;;;;5054384;28;20025;-66
2021/08/20 11:36:01;;;;;;;4.63;3.90;;;29.20;72.00;;;;;;5055077;28;20035;-66
2021/08/20 11:38:28;;;;;;;5.25;3.55;;;28.50;69.60;;;;;;5052655;28;20036;-66
2021/08/20 11:40:56;;;;;;;5.68;4.53;;;27.30;71.20;;;;;;5053355;28;20043;-67
2021/08/20 11:43:24;;;;;;;6.57;4.30;;;25.80;71.20;;;;;;5055752;28;20040;-66
2021/08/20 11:46:24;;;;;;;6.05;4.18;;;24.50;76.90;;;;;;5058727;28;20040;-67
2021/08/20 11:48:51;;;;;;;5.78;4.82;;;23.40;81.60;;;;;;5023744;28;20045;-65
2021/08/20 11:51:29;;;;;;;7.07;4.60;;;22.40;82.40;;;;;;5056322;28;20029;-67
2021/08/20 11:53:59;;;;;;;7.22;5.50;;;21.60;86.80;;;;;;5061315;28;20369;-66
2021/08/20 11:56:26;;;;;;;9.48;5.55;;;21.00;90.20;;;;;;5058201;28;20450;-67
2021/08/20 11:58:53;;;;;;;9.05;5.47;;;20.60;91.30;;;;;;5056550;28;20029;-67
2021/08/20 12:01:18;;;;;;;8.30;5.10;;;20.20;91.90;;;;;;5056792;28;20087;-67
2021/08/20 12:03:49;;;;;;;8.18;5.78;;;20.00;92.50;;;;;;5041562;28;20025;-67
2021/08/20 12:06:16;;;;;;;7.75;5.50;;;20.10;93.10;;;;;;5059899;28;20398;-66
2021/08/20 12:08:42;;;;;;;8.35;6.10;;;20.40;93.00;;;;;;5057723;28;20040;-66
2021/08/20 12:11:10;;;;;;;7.03;5.25;;;20.90;91.30;;;;;;5059842;28;20179;-71
2021/08/20 12:13:45;;;;;;;7.38;4.47;;;21.10;91.20;;;;;;5054436;28;20029;-67
2021/08/20 12:16:11;;;;;;;7.45;4.43;;;21.50;91.40;;;;;;5060872;28;20372;-67
2021/08/20 12:18:45;;;;;;;5.18;3.70;;;21.90;88.70;;;;;;5057991;28;20039;-67
2021/08/20 12:21:15;;;;;;;5.45;4.03;;;21.90;89.00;;;;;;5055465;28;20033;-67
2021/08/20 12:23:57;;;;;;;7.35;4.35;;;21.70;88.80;;;;;;5057060;28;20040;-67
2021/08/20 12:26:23;;;;;;;5.68;3.70;;;21.60;89.00;;;;;;5056816;28;20104;-67
2021/08/20 12:28:50;;;;;;;5.70;3.65;;;21.60;90.10;;;;;;5056974;28;20111;-67
2021/08/20 12:31:20;;;;;;;5.22;3.40;;;21.50;89.80;;;;;;5057902;28;20086;-66
2021/08/20 12:34:06;;;;;;;3.90;3.13;;;21.50;89.60;;;;;;5057010;28;20021;-67
2021/08/20 12:36:32;;;;;;;5.47;3.50;;;21.60;90.20;;;;;;5056611;28;20032;-67
2021/08/20 12:39:15;;;;;;;4.22;3.13;;;21.60;90.00;;;;;;5057500;28;20399;-67
2021/08/20 12:41:42;;;;;;;5.57;3.80;;;21.60;90.00;;;;;;5079504;28;20028;-67
2021/08/20 12:44:09;;;;;;;4.57;3.35;;;21.50;89.80;;;;;;5056762;28;20485;-67
2021/08/20 12:46:42;;;;;;;4.78;3.35;;;21.30;89.80;;;;;;5075888;28;20029;-67
2021/08/20 12:49:11;;;;;;;4.43;3.40;;;21.20;90.30;;;;;;5077747;28;20047;-67